Latest Coastal Weather Observations for Parndana

IDS60701

Issued at 1:21 pm CDT Tuesday 23 December 2014 (issued every 10 minutes, with the page automatically refreshed every 10 minutes)

About coastal observations | Map of coastal stations | Coastal observations for SA | Marine services | Other Formats
Station Details ID: 022843 Name: PARNDANA CFS AWS Lat: -35.79 Lon: 137.25 Height: 165.0 m
Data from the previous 72 hours. | See also: Recent months at Parndana
Date/Time
CDT
Temp

°C
Wind Pressure Rain
since 9am
mm
Weather Cloud Vis
km
Sea
Height
m
Swell
Dir
 
Speed
knots
Gust
knots
hPa Trend Height
m
Period
s
Dir
23/01:00pm 17.9 SSW 14 19 - - 0.0 - - - - - - -
23/12:30pm 17.9 SSW 12 18 - - 0.0 - - - - - - -
23/12:00pm 17.4 SW 12 19 - - 0.0 - - - - - - -
23/11:30am 16.5 SW 14 19 - - 0.0 - - - - - - -
23/11:00am 17.2 SW 12 16 - - 0.0 - - - - - - -
23/10:30am 16.1 SW 14 18 - - 0.0 - - - - - - -
23/10:00am 16.1 SW 13 17 - - 0.0 - - - - - - -
23/09:30am 15.4 SW 11 17 - - 0.0 - - - - - - -
23/09:00am 15.2 SW 12 16 - - 7.6 - - - - - - -
23/08:30am 14.3 SW 10 14 - - 7.6 - - - - - - -
23/08:00am 14.4 SW 10 14 - - 7.6 - - - - - - -
23/07:30am 14.2 SW 11 15 - - 7.4 - - - - - - -
23/07:00am 14.3 SSW 11 16 - - 7.4 - - - - - - -
23/06:30am 14.3 SSW 9 12 - - 7.4 - - - - - - -
23/06:00am 14.3 SSW 10 13 - - 7.4 - - - - - - -
23/05:30am 14.3 SSW 8 12 - - 7.4 - - - - - - -
23/05:00am 14.4 SW 8 10 - - 7.4 - - - - - - -
23/04:30am 13.7 SSW 6 8 - - 7.4 - - - - - - -
23/04:00am 13.9 SSW 8 12 - - 7.4 - - - - - - -
23/03:30am 14.1 SSW 7 11 - - 7.4 - - - - - - -
23/03:00am 14.1 SSW 10 12 - - 7.4 - - - - - - -
23/02:30am 13.9 SSW 10 12 - - 7.4 - - - - - - -
23/02:00am 14.3 SSW 10 13 - - 7.4 - - - - - - -
23/01:30am 14.2 SSW 9 12 - - 7.4 - - - - - - -
23/01:00am 14.5 SSW 10 14 - - 7.4 - - - - - - -
23/12:30am 14.9 SSW 9 12 - - 7.4 - - - - - - -
23/12:00am 15.2 SSW 8 10 - - 7.4 - - - - - - -
 
Date/Time
CDT
Temp

°C
Wind Pressure Rain
since 9am
mm
Weather Cloud Vis
km
Sea
Height
m
Swell
Dir
 
Speed
knots
Gust
knots
hPa Trend Height
m
Period
s
Dir
22/11:30pm 15.1 SSW 8 10 - - 7.4 - - - - - - -
22/11:00pm 15.3 S 9 12 - - 7.4 - - - - - - -
22/10:30pm 15.3 S 8 11 - - 7.4 - - - - - - -
22/10:00pm 15.4 S 8 11 - - 7.4 - - - - - - -
22/09:30pm 15.4 S 8 9 - - 7.4 - - - - - - -
22/09:00pm 15.5 SSW 9 11 - - 7.4 Recent precip. - - - - - -
22/08:30pm 15.7 SSW 10 13 - - 7.4 - - - - - - -
22/08:00pm 15.9 S 7 9 - - 7.2 - - - - - - -
22/07:30pm 16.0 SSW 6 9 - - 7.2 - - - - - - -
22/07:00pm 16.2 SSW 7 11 - - 7.2 - - - - - - -
22/06:30pm 16.7 S 5 7 - - 7.0 - - - - - - -
22/06:00pm 18.4 NW 6 8 - - 6.6 - - - - - - -
22/05:30pm 18.5 N 3 5 - - 6.6 - - - - - - -
22/05:00pm 18.0 NW 3 5 - - 6.6 - - - - - - -
22/04:30pm 17.8 NNE 6 7 - - 6.6 - - - - - - -
22/04:00pm 17.2 NE 4 5 - - 6.6 - - - - - - -
22/03:30pm 17.1 ENE 6 8 - - 6.2 - - - - - - -
22/03:00pm 17.1 ESE 7 11 - - 5.6 Recent precip. - - - - - -
22/02:30pm 17.2 ESE 5 6 - - 5.2 - - - - - - -
22/02:00pm 17.1 E 4 5 - - 4.6 - - - - - - -
22/01:30pm 17.2 ESE 5 7 - - 4.0 - - - - - - -
22/01:00pm 16.8 SSE 7 10 - - 3.6 - - - - - - -
22/12:30pm 16.5 SSE 7 9 - - 2.6 - - - - - - -
22/12:00pm 16.6 S 9 14 - - 2.2 Rain - - - - - -
22/11:30am 16.6 S 9 12 - - 1.8 - - - - - - -
22/11:00am 16.6 SSE 8 10 - - 1.2 - - - - - - -
22/10:30am 16.4 SSE 7 8 - - 0.6 - - - - - - -
22/10:00am 16.7 SSE 7 12 - - 0.0 - - - - - - -
22/09:30am 16.6 S 9 12 - - 0.0 - - - - - - -
22/09:00am 16.6 S 9 13 - - 0.2 - - - - - - -
22/08:30am 16.3 S 8 10 - - 0.2 - - - - - - -
22/08:00am 16.1 SSE 8 11 - - 0.2 - - - - - - -
22/07:30am 15.8 S 11 14 - - 0.2 - - - - - - -
22/07:00am 15.6 S 10 12 - - 0.2 - - - - - - -
22/06:30am 15.4 S 9 12 - - 0.2 - - - - - - -
22/06:00am 15.4 S 12 15 - - 0.2 - - - - - - -
22/05:30am 14.9 S 11 15 - - 0.2 - - - - - - -
22/05:00am 14.9 SSE 12 16 - - 0.2 - - - - - - -
22/04:30am 15.0 S 9 12 - - 0.2 - - - - - - -
22/04:00am 15.2 S 3 6 - - 0.0 - - - - - - -
22/03:30am 15.2 SE 4 6 - - 0.0 - - - - - - -
22/03:00am 15.1 SE 9 13 - - 0.0 - - - - - - -
22/02:30am 15.0 SE 6 8 - - 0.0 - - - - - - -
22/02:00am 14.9 SE 10 13 - - 0.0 - - - - - - -
22/01:30am 15.1 SSE 13 16 - - 0.0 - - - - - - -
22/01:00am 15.2 SSE 11 14 - - 0.0 - - - - - - -
22/12:30am 15.2 SSE 13 16 - - 0.0 - - - - - - -
22/12:00am 15.3 SSE 14 18 - - 0.0 - - - - - - -
 
Date/Time
CDT
Temp

°C
Wind Pressure Rain
since 9am
mm
Weather Cloud Vis
km
Sea
Height
m
Swell
Dir
 
Speed
knots
Gust
knots
hPa Trend Height
m
Period
s
Dir
21/11:30pm 15.2 SSE 15 21 - - 0.0 - - - - - - -
21/11:00pm 15.3 SSE 11 15 - - 0.0 - - - - - - -
21/10:30pm 15.7 SSE 9 14 - - 0.0 - - - - - - -
21/10:00pm 15.7 S 11 16 - - 0.0 - - - - - - -
21/09:30pm 15.7 SSE 12 18 - - 0.0 - - - - - - -
21/09:00pm 15.9 SSE 13 17 - - 0.0 - - - - - - -
21/08:30pm 16.0 SSE 15 20 - - 0.0 - - - - - - -
21/08:00pm 16.5 S 12 16 - - 0.0 - - - - - - -
21/07:30pm 17.2 SSE 14 19 - - 0.0 - - - - - - -
21/07:00pm 18.0 SSE 14 18 - - 0.0 - - - - - - -
21/06:30pm 18.5 SE 11 17 - - 0.0 - - - - - - -
21/06:00pm 19.2 SE 14 18 - - 0.0 - - - - - - -
21/05:30pm 19.7 SE 15 20 - - 0.0 - - - - - - -
21/05:00pm 20.6 SE 16 20 - - 0.0 - - - - - - -
21/04:30pm 20.3 SSE 15 19 - - 0.0 - - - - - - -
21/04:00pm 21.8 SE 14 19 - - 0.0 - - - - - - -
21/03:30pm 21.8 SE 13 17 - - 0.0 - - - - - - -
21/03:00pm 23.8 SE 14 19 - - 0.0 - - - - - - -
21/02:30pm 22.4 SE 13 18 - - 0.0 - - - - - - -
21/02:00pm 23.2 SSE 13 19 - - 0.0 - - - - - - -
21/01:30pm 23.1 SSE 14 18 - - 0.0 - - - - - - -
21/01:00pm 21.9 SSE 14 18 - - 0.0 - - - - - - -
21/12:30pm 22.5 S 12 17 - - 0.0 - - - - - - -
21/12:00pm 22.5 S 11 15 - - 0.0 - - - - - - -
21/11:30am 22.0 S 11 15 - - 0.0 - - - - - - -
21/11:00am 21.8 S 12 16 - - 0.0 - - - - - - -
21/10:30am 21.8 S 10 13 - - 0.0 - - - - - - -
21/10:00am 21.6 S 11 15 - - 0.0 - - - - - - -
21/09:30am 21.5 S 11 13 - - 0.0 - - - - - - -
21/09:00am 20.3 S 8 11 - - 0.0 - - - - - - -
21/08:30am 18.8 SSW 9 12 - - 0.0 - - - - - - -
21/08:00am 16.1 S 3 4 - - 0.0 - - - - - - -
21/07:30am 14.5 S 3 4 - - 0.0 - - - - - - -
21/07:00am 12.9 SSE 4 4 - - 0.0 - - - - - - -
21/06:30am 11.4 ESE 1 3 - - 0.0 - - - - - - -
21/06:00am 12.3 NNE 2 3 - - 0.0 - - - - - - -
21/05:30am 12.8 NNE 4 5 - - 0.0 - - - - - - -
21/05:00am 12.4 NE 4 5 - - 0.0 - - - - - - -
21/04:30am 12.1 ENE 4 5 - - 0.0 - - - - - - -
21/04:00am 12.7 ENE 3 4 - - 0.0 - - - - - - -
21/03:30am 12.8 ENE 3 4 - - 0.0 - - - - - - -
21/03:00am 12.4 E 4 5 - - 0.0 - - - - - - -
21/02:30am 12.6 ESE 7 10 - - 0.0 - - - - - - -
21/02:00am 12.0 ESE 7 9 - - 0.0 - - - - - - -
21/01:30am 11.6 S 4 4 - - 0.0 - - - - - - -
21/01:00am 11.2 SSW 4 4 - - 0.0 - - - - - - -
21/12:30am 11.7 CALM 0 0 - - 0.0 - - - - - - -
21/12:00am 11.7 ESE 4 5 - - 0.0 - - - - - - -
 
Date/Time
CDT
Temp

°C
Wind Pressure Rain
since 9am
mm
Weather Cloud Vis
km
Sea
Height
m
Swell
Dir
 
Speed
knots
Gust
knots
hPa Trend Height
m
Period
s
Dir
20/11:30pm 11.3 ESE 5 6 - - 0.0 - - - - - - -
20/11:00pm 11.7 ESE 5 5 - - 0.0 - - - - - - -
20/10:30pm 12.5 SE 4 5 - - 0.0 - - - - - - -
20/10:00pm 12.9 SE 5 6 - - 0.0 - - - - - - -
20/09:30pm 14.0 ESE 6 9 - - 0.0 - - - - - - -
20/09:00pm 15.1 ESE 8 12 - - 0.0 - - - - - - -
20/08:30pm 16.1 ESE 8 10 - - 0.0 - - - - - - -
20/08:00pm 17.5 ESE 9 12 - - 0.0 - - - - - - -
20/07:30pm 19.1 ESE 8 11 - - 0.0 - - - - - - -
20/07:00pm 19.8 ESE 10 12 - - 0.0 - - - - - - -
20/06:30pm 21.1 ESE 10 14 - - 0.0 - - - - - - -
20/06:00pm 22.3 ESE 10 14 - - 0.0 - - - - - - -
20/05:30pm 22.6 ESE 9 14 - - 0.0 - - - - - - -
20/05:00pm 23.1 E 10 13 - - 0.0 - - - - - - -
20/04:30pm 23.2 ESE 12 16 - - 0.0 - - - - - - -
20/04:00pm 24.2 E 9 15 - - 0.0 - - - - - - -
20/03:30pm 24.8 E 9 14 - - 0.0 - - - - - - -
20/03:00pm 24.2 ESE 10 16 - - 0.0 - - - - - - -
20/02:30pm 24.4 ESE 10 16 - - 0.0 - - - - - - -
20/02:00pm 23.1 SE 8 14 - - 0.0 - - - - - - -
20/01:30pm 23.4 SSE 5 11 - - 0.0 - - - - - - -

Other Formats:

Comma delimited format used in spreadsheet applications
http://www.bom.gov.au/fwo/IDS60701/IDS60701.94807.axf

JavaScript Object Notation format (JSON) in row-major order
http://www.bom.gov.au/fwo/IDS60701/IDS60701.94807.json